sensor_id;sensor_type;location;lat;lon;timestamp;P1;durP1;ratioP1;P2;durP2;ratioP2
53287;SDS011;39172;45.550;12.072;2022-08-19T07:19:34;2.15;;;0.70;;
53287;SDS011;39172;45.550;12.072;2022-08-19T07:25:36;1.50;;;0.80;;
53287;SDS011;39172;45.550;12.072;2022-08-19T07:31:37;1.75;;;0.70;;
53287;SDS011;39172;45.550;12.072;2022-08-19T07:37:38;1.77;;;0.55;;
53287;SDS011;39172;45.550;12.072;2022-08-19T07:43:44;1.20;;;0.60;;
53287;SDS011;39172;45.550;12.072;2022-08-19T07:49:46;1.42;;;0.68;;
53287;SDS011;39172;45.550;12.072;2022-08-19T07:55:48;1.08;;;0.57;;
53287;SDS011;39172;45.550;12.072;2022-08-19T08:01:49;0.95;;;0.60;;
53287;SDS011;39172;45.550;12.072;2022-08-19T08:07:51;1.40;;;0.60;;
53287;SDS011;39172;45.550;12.072;2022-08-19T08:14:10;1.30;;;0.63;;
53287;SDS011;39172;45.550;12.072;2022-08-19T08:20:13;1.75;;;0.68;;
53287;SDS011;39172;45.550;12.072;2022-08-19T08:26:14;1.52;;;0.60;;
53287;SDS011;39172;45.550;12.072;2022-08-19T08:32:16;0.93;;;0.60;;
53287;SDS011;39172;45.550;12.072;2022-08-19T08:38:17;2.03;;;0.80;;
53287;SDS011;39172;45.550;12.072;2022-08-19T08:50:39;1.80;;;0.70;;
53287;SDS011;39172;45.550;12.072;2022-08-19T08:56:42;1.30;;;0.57;;
53287;SDS011;39172;45.550;12.072;2022-08-19T09:02:44;1.52;;;0.75;;
53287;SDS011;39172;45.550;12.072;2022-08-19T09:20:47;1.25;;;0.70;;
53287;SDS011;39172;45.550;12.072;2022-08-19T09:26:49;0.73;;;0.50;;
53287;SDS011;39172;45.550;12.072;2022-08-19T09:32:50;1.88;;;0.63;;
53287;SDS011;39172;45.550;12.072;2022-08-19T09:38:53;1.33;;;0.60;;
53287;SDS011;39172;45.550;12.072;2022-08-19T09:44:54;1.05;;;0.50;;
53287;SDS011;39172;45.550;12.072;2022-08-19T09:50:55;0.90;;;0.60;;
53287;SDS011;39172;45.550;12.072;2022-08-19T09:56:57;0.68;;;0.40;;
53287;SDS011;39172;45.550;12.072;2022-08-19T10:02:59;0.77;;;0.30;;
53287;SDS011;39172;45.550;12.072;2022-08-19T10:09:00;0.77;;;0.40;;
53287;SDS011;39172;45.550;12.072;2022-08-19T10:15:01;1.10;;;0.40;;
53287;SDS011;39172;45.550;12.072;2022-08-19T10:21:05;0.63;;;0.50;;
53287;SDS011;39172;45.550;12.072;2022-08-19T10:27:09;0.85;;;0.43;;
53287;SDS011;39172;45.550;12.072;2022-08-19T10:33:10;1.65;;;0.70;;
53287;SDS011;39172;45.550;12.072;2022-08-19T10:39:11;1.45;;;0.80;;
53287;SDS011;39172;45.550;12.072;2022-08-19T10:45:13;3.00;;;0.70;;
53287;SDS011;39172;45.550;12.072;2022-08-19T10:51:14;2.35;;;1.00;;
53287;SDS011;39172;45.550;12.072;2022-08-19T10:57:34;1.92;;;0.60;;
53287;SDS011;39172;45.550;12.072;2022-08-19T11:03:35;1.67;;;0.70;;
53287;SDS011;39172;45.550;12.072;2022-08-19T11:09:37;2.03;;;0.98;;
53287;SDS011;39172;45.550;12.072;2022-08-19T11:15:39;2.45;;;0.77;;
53287;SDS011;39172;45.550;12.072;2022-08-19T11:21:41;0.60;;;0.40;;
53287;SDS011;39172;45.550;12.072;2022-08-19T11:27:43;1.83;;;0.60;;
53287;SDS011;39172;45.550;12.072;2022-08-19T11:33:45;1.15;;;0.50;;
53287;SDS011;39172;45.550;12.072;2022-08-19T11:39:46;0.82;;;0.40;;
53287;SDS011;39172;45.550;12.072;2022-08-19T11:45:47;0.80;;;0.40;;
53287;SDS011;39172;45.550;12.072;2022-08-19T11:51:49;1.23;;;0.40;;
53287;SDS011;39172;45.550;12.072;2022-08-19T11:57:51;1.67;;;0.70;;
53287;SDS011;39172;45.550;12.072;2022-08-19T12:03:53;1.13;;;0.60;;
53287;SDS011;39172;45.550;12.072;2022-08-19T12:09:54;3.90;;;1.30;;
53287;SDS011;39172;45.550;12.072;2022-08-19T12:15:55;0.85;;;0.50;;
53287;SDS011;39172;45.550;12.072;2022-08-19T12:21:59;1.17;;;0.57;;
53287;SDS011;39172;45.550;12.072;2022-08-19T12:28:02;1.15;;;0.50;;
53287;SDS011;39172;45.550;12.072;2022-08-19T12:34:04;2.80;;;1.17;;
53287;SDS011;39172;45.550;12.072;2022-08-19T12:40:05;1.02;;;0.70;;
53287;SDS011;39172;45.550;12.072;2022-08-19T12:46:06;2.53;;;0.60;;
53287;SDS011;39172;45.550;12.072;2022-08-19T12:52:08;0.68;;;0.50;;
53287;SDS011;39172;45.550;12.072;2022-08-19T12:58:10;1.42;;;0.57;;
53287;SDS011;39172;45.550;12.072;2022-08-19T13:04:13;1.27;;;0.60;;
53287;SDS011;39172;45.550;12.072;2022-08-19T13:10:14;1.08;;;0.70;;
53287;SDS011;39172;45.550;12.072;2022-08-19T13:16:16;1.13;;;0.60;;
53287;SDS011;39172;45.550;12.072;2022-08-19T13:22:17;1.33;;;0.60;;
53287;SDS011;39172;45.550;12.072;2022-08-19T13:28:18;1.58;;;0.63;;
53287;SDS011;39172;45.550;12.072;2022-08-19T13:34:25;1.75;;;0.70;;
53287;SDS011;39172;45.550;12.072;2022-08-19T13:40:26;1.50;;;0.50;;
53287;SDS011;39172;45.550;12.072;2022-08-19T13:46:28;1.65;;;0.60;;
53287;SDS011;39172;45.550;12.072;2022-08-19T13:52:31;1.10;;;0.55;;
53287;SDS011;39172;45.550;12.072;2022-08-19T13:58:31;1.63;;;0.40;;
53287;SDS011;39172;45.550;12.072;2022-08-19T14:04:32;0.50;;;0.40;;
53287;SDS011;39172;45.550;12.072;2022-08-19T14:10:33;0.60;;;0.40;;
53287;SDS011;39172;45.550;12.072;2022-08-19T14:16:34;0.52;;;0.40;;
53287;SDS011;39172;45.550;12.072;2022-08-19T14:22:35;1.02;;;0.40;;
53287;SDS011;39172;45.550;12.072;2022-08-19T14:28:37;1.48;;;0.40;;
53287;SDS011;39172;45.550;12.072;2022-08-19T14:34:39;0.73;;;0.45;;
53287;SDS011;39172;45.550;12.072;2022-08-19T14:40:40;1.23;;;0.40;;
53287;SDS011;39172;45.550;12.072;2022-08-19T14:46:42;0.93;;;0.60;;
53287;SDS011;39172;45.550;12.072;2022-08-19T14:52:45;1.95;;;0.43;;
53287;SDS011;39172;45.550;12.072;2022-08-19T14:58:48;1.15;;;0.60;;
53287;SDS011;39172;45.550;12.072;2022-08-19T15:04:51;0.65;;;0.50;;
53287;SDS011;39172;45.550;12.072;2022-08-19T15:10:53;0.90;;;0.57;;
53287;SDS011;39172;45.550;12.072;2022-08-19T15:16:54;0.85;;;0.50;;
53287;SDS011;39172;45.550;12.072;2022-08-19T15:22:55;1.20;;;0.60;;
53287;SDS011;39172;45.550;12.072;2022-08-19T15:28:56;1.27;;;0.50;;
53287;SDS011;39172;45.550;12.072;2022-08-19T15:34:57;3.20;;;0.82;;
53287;SDS011;39172;45.550;12.072;2022-08-19T15:40:59;2.83;;;1.00;;
53287;SDS011;39172;45.550;12.072;2022-08-19T15:47:20;1.98;;;0.85;;
53287;SDS011;39172;45.550;12.072;2022-08-19T15:53:21;2.45;;;1.13;;
53287;SDS011;39172;45.550;12.072;2022-08-19T15:59:22;3.00;;;1.20;;
53287;SDS011;39172;45.550;12.072;2022-08-19T16:05:41;2.25;;;1.05;;
53287;SDS011;39172;45.550;12.072;2022-08-19T16:12:02;3.30;;;0.80;;
53287;SDS011;39172;45.550;12.072;2022-08-19T16:18:04;3.78;;;1.40;;
53287;SDS011;39172;45.550;12.072;2022-08-19T16:24:05;2.28;;;1.05;;
53287;SDS011;39172;45.550;12.072;2022-08-19T16:30:07;1.92;;;1.02;;
53287;SDS011;39172;45.550;12.072;2022-08-19T16:36:08;3.67;;;1.20;;
53287;SDS011;39172;45.550;12.072;2022-08-19T16:42:09;2.53;;;1.02;;
53287;SDS011;39172;45.550;12.072;2022-08-19T16:48:10;3.30;;;1.13;;
53287;SDS011;39172;45.550;12.072;2022-08-19T16:54:11;2.72;;;0.80;;
53287;SDS011;39172;45.550;12.072;2022-08-19T17:00:12;1.85;;;0.80;;
53287;SDS011;39172;45.550;12.072;2022-08-19T17:06:17;2.45;;;1.08;;
53287;SDS011;39172;45.550;12.072;2022-08-19T17:12:18;1.88;;;0.68;;
53287;SDS011;39172;45.550;12.072;2022-08-19T17:18:20;2.40;;;0.70;;
53287;SDS011;39172;45.550;12.072;2022-08-19T17:24:22;2.78;;;0.98;;
53287;SDS011;39172;45.550;12.072;2022-08-19T17:30:23;2.17;;;0.77;;
53287;SDS011;39172;45.550;12.072;2022-08-19T17:36:25;1.17;;;0.60;;
53287;SDS011;39172;45.550;12.072;2022-08-19T17:42:27;1.15;;;0.60;;
53287;SDS011;39172;45.550;12.072;2022-08-19T17:48:29;2.53;;;1.10;;
53287;SDS011;39172;45.550;12.072;2022-08-19T17:54:30;3.08;;;1.10;;
53287;SDS011;39172;45.550;12.072;2022-08-19T18:00:31;2.22;;;1.05;;
53287;SDS011;39172;45.550;12.072;2022-08-19T18:06:33;2.67;;;1.10;;
53287;SDS011;39172;45.550;12.072;2022-08-19T18:12:36;3.08;;;1.25;;
53287;SDS011;39172;45.550;12.072;2022-08-19T18:18:38;2.42;;;1.17;;
53287;SDS011;39172;45.550;12.072;2022-08-19T18:24:40;2.47;;;1.13;;
53287;SDS011;39172;45.550;12.072;2022-08-19T18:30:41;2.40;;;1.20;;
53287;SDS011;39172;45.550;12.072;2022-08-19T18:36:42;1.73;;;0.90;;
53287;SDS011;39172;45.550;12.072;2022-08-19T18:42:43;2.05;;;1.17;;
53287;SDS011;39172;45.550;12.072;2022-08-19T18:49:03;2.13;;;1.00;;
53287;SDS011;39172;45.550;12.072;2022-08-19T18:55:04;2.17;;;1.00;;
53287;SDS011;39172;45.550;12.072;2022-08-19T19:01:07;2.60;;;0.90;;
53287;SDS011;39172;45.550;12.072;2022-08-19T19:07:12;2.28;;;0.77;;
53287;SDS011;39172;45.550;12.072;2022-08-19T19:13:17;0.77;;;0.45;;
53287;SDS011;39172;45.550;12.072;2022-08-19T19:19:18;1.48;;;0.80;;
53287;SDS011;39172;45.550;12.072;2022-08-19T19:25:19;1.35;;;0.70;;
53287;SDS011;39172;45.550;12.072;2022-08-19T19:31:22;3.63;;;1.67;;
53287;SDS011;39172;45.550;12.072;2022-08-19T19:37:23;4.13;;;1.60;;
53287;SDS011;39172;45.550;12.072;2022-08-19T19:43:23;3.05;;;1.20;;
53287;SDS011;39172;45.550;12.072;2022-08-19T19:49:24;2.47;;;1.13;;
53287;SDS011;39172;45.550;12.072;2022-08-19T19:55:25;2.08;;;1.10;;
53287;SDS011;39172;45.550;12.072;2022-08-19T20:01:28;2.30;;;1.40;;
53287;SDS011;39172;45.550;12.072;2022-08-19T20:07:29;2.83;;;1.70;;
53287;SDS011;39172;45.550;12.072;2022-08-19T20:13:48;2.47;;;1.50;;
53287;SDS011;39172;45.550;12.072;2022-08-19T20:19:49;2.75;;;1.40;;
53287;SDS011;39172;45.550;12.072;2022-08-19T20:25:50;2.45;;;1.30;;
53287;SDS011;39172;45.550;12.072;2022-08-19T20:31:52;1.50;;;1.13;;
53287;SDS011;39172;45.550;12.072;2022-08-19T20:37:53;2.13;;;1.25;;
53287;SDS011;39172;45.550;12.072;2022-08-19T20:43:54;2.35;;;1.30;;
53287;SDS011;39172;45.550;12.072;2022-08-19T20:49:55;2.85;;;1.42;;
53287;SDS011;39172;45.550;12.072;2022-08-19T20:55:57;2.10;;;1.25;;
53287;SDS011;39172;45.550;12.072;2022-08-19T21:01:58;2.22;;;1.25;;
53287;SDS011;39172;45.550;12.072;2022-08-19T21:07:59;1.98;;;1.30;;
53287;SDS011;39172;45.550;12.072;2022-08-19T21:14:00;2.45;;;1.30;;
53287;SDS011;39172;45.550;12.072;2022-08-19T21:20:01;3.03;;;1.60;;
53287;SDS011;39172;45.550;12.072;2022-08-19T21:26:02;2.00;;;1.58;;
53287;SDS011;39172;45.550;12.072;2022-08-19T21:32:03;2.45;;;1.20;;
53287;SDS011;39172;45.550;12.072;2022-08-19T21:38:04;1.70;;;1.15;;
53287;SDS011;39172;45.550;12.072;2022-08-19T21:44:06;3.38;;;1.75;;
53287;SDS011;39172;45.550;12.072;2022-08-19T21:50:07;2.00;;;1.40;;
53287;SDS011;39172;45.550;12.072;2022-08-19T21:56:08;2.33;;;1.48;;
53287;SDS011;39172;45.550;12.072;2022-08-19T22:02:12;2.75;;;1.42;;
53287;SDS011;39172;45.550;12.072;2022-08-19T22:08:13;2.88;;;1.50;;
53287;SDS011;39172;45.550;12.072;2022-08-19T22:14:14;1.80;;;1.00;;
53287;SDS011;39172;45.550;12.072;2022-08-19T22:20:16;3.83;;;2.50;;
53287;SDS011;39172;45.550;12.072;2022-08-19T22:26:17;1.90;;;1.00;;
53287;SDS011;39172;45.550;12.072;2022-08-19T22:32:19;1.52;;;0.95;;
53287;SDS011;39172;45.550;12.072;2022-08-19T22:38:20;1.73;;;1.00;;
53287;SDS011;39172;45.550;12.072;2022-08-19T22:44:21;2.30;;;2.10;;
53287;SDS011;39172;45.550;12.072;2022-08-19T22:50:22;2.85;;;1.85;;
53287;SDS011;39172;45.550;12.072;2022-08-19T22:56:23;0.73;;;0.52;;
53287;SDS011;39172;45.550;12.072;2022-08-19T23:02:25;0.77;;;0.55;;
53287;SDS011;39172;45.550;12.072;2022-08-19T23:08:27;1.20;;;0.60;;
53287;SDS011;39172;45.550;12.072;2022-08-19T23:14:28;1.27;;;0.90;;
53287;SDS011;39172;45.550;12.072;2022-08-19T23:20:30;0.70;;;0.40;;
53287;SDS011;39172;45.550;12.072;2022-08-19T23:26:32;0.98;;;0.80;;
53287;SDS011;39172;45.550;12.072;2022-08-19T23:32:33;1.92;;;1.20;;
53287;SDS011;39172;45.550;12.072;2022-08-19T23:38:34;1.73;;;1.05;;
53287;SDS011;39172;45.550;12.072;2022-08-19T23:44:36;1.10;;;1.00;;
53287;SDS011;39172;45.550;12.072;2022-08-19T23:50:38;2.22;;;1.70;;
53287;SDS011;39172;45.550;12.072;2022-08-19T23:56:40;1.73;;;1.20;;
